.
WxDataArchive / Data Records for 2007-09-05
2007-09-04 September 2007 2007-09-06

Data Records for Wednesday, 05 September 2007

Time	Temp	Chill	HIndex	Humid	Dewpt	 Wind 	HiWind	WindDir	Rain 	Barom 
-----	----	-----	------	-----	-----	------	------	-------	-----	----- 
00:00	64.8	64.8	64.8	93	62.7	0	0	---	0.00	29.947 
00:05	64.7	64.7	64.7	93	62.6	0	0	---	0.00	29.947 
00:10	64.7	64.7	64.7	93	62.6	0	0	---	0.00	29.949 
00:15	64.5	64.5	64.5	94	62.7	0	0	---	0.00	29.950 
00:20	64.5	64.5	64.5	94	62.7	0	0	---	0.00	29.950 
00:25	64.3	64.3	64.3	94	62.5	0	0	---	0.00	29.950 
00:30	64.3	64.3	64.3	94	62.5	0	0	---	0.00	29.950 
00:35	64.3	64.3	64.3	94	62.5	0	0	---	0.00	29.951 
00:40	64.2	64.2	64.2	94	62.4	0	0	---	0.00	29.952 
00:45	64.0	64.0	64.0	94	62.2	0	0	---	0.00	29.952 
00:50	63.9	63.9	63.9	95	62.4	0	0	---	0.00	29.953 
00:55	63.7	63.7	63.7	95	62.2	0	0	---	0.00	29.952 
01:00	63.7	63.7	63.7	95	62.2	0	0	---	0.00	29.951 
01:05	63.7	63.7	63.7	95	62.2	0	0	---	0.00	29.952 
01:10	63.5	63.5	63.5	95	62.0	0	0	---	0.00	29.951 
01:15	63.4	63.4	63.4	95	61.9	0	0	---	0.00	29.949 
01:20	63.4	63.4	63.4	95	61.9	0	0	---	0.00	29.950 
01:25	63.2	63.2	63.2	95	61.7	0	0	---	0.00	29.950 
01:30	63.2	63.2	63.2	95	61.7	0	0	---	0.00	29.949 
01:35	63.1	63.1	63.1	96	61.9	0	0	---	0.00	29.948 
01:40	62.9	62.9	62.9	96	61.7	0	0	---	0.00	29.947 
01:45	62.9	62.9	62.9	96	61.7	0	0	---	0.00	29.946 
01:50	62.7	62.7	62.7	96	61.5	0	0	---	0.00	29.948 
01:55	62.7	62.7	62.7	96	61.5	0	0	---	0.00	29.949 
02:00	62.6	62.6	62.6	96	61.4	0	0	---	0.00	29.949 
02:05	62.6	62.6	62.6	96	61.4	0	0	---	0.00	29.948 
02:10	62.4	62.4	62.4	96	61.2	0	0	---	0.00	29.947 
02:15	62.4	62.4	62.4	96	61.2	0	0	---	0.00	29.949 
02:20	62.4	62.4	62.4	96	61.2	0	0	---	0.00	29.949 
02:25	62.3	62.3	62.3	96	61.1	0	0	---	0.00	29.948 
02:30	62.3	62.3	62.3	96	61.1	0	0	---	0.00	29.950 
02:35	62.3	62.3	62.3	96	61.1	0	0	---	0.00	29.951 
02:40	62.3	62.3	62.3	96	61.1	0	0	---	0.00	29.950 
02:45	62.1	62.1	62.1	96	60.9	0	0	---	0.00	29.950 
02:50	62.1	62.1	62.1	96	60.9	0	0	---	0.00	29.951 
02:55	62.1	62.1	62.1	96	60.9	0	0	---	0.00	29.951 
03:00	62.0	62.0	62.0	96	60.8	0	0	---	0.00	29.950 
03:05	61.8	61.8	61.8	96	60.6	0	0	---	0.00	29.951 
03:10	61.8	61.8	61.8	96	60.6	0	0	---	0.00	29.951 
03:15	61.8	61.8	61.8	96	60.6	0	0	---	0.00	29.949 
03:20	61.8	61.8	61.8	97	60.9	0	0	---	0.00	29.949 
03:25	61.6	61.6	61.6	97	60.7	0	0	---	0.00	29.949 
03:30	61.6	61.6	61.6	97	60.7	0	0	---	0.00	29.950 
03:35	61.5	61.5	61.5	97	60.6	0	0	---	0.00	29.950 
03:40	61.5	61.5	61.5	97	60.6	0	0	---	0.00	29.952 
03:45	61.5	61.5	61.5	97	60.6	0	0	---	0.00	29.952 
03:50	61.6	61.6	61.6	97	60.7	0	0	---	0.00	29.951 
03:55	61.6	61.6	61.6	97	60.7	0	0	---	0.00	29.952 
04:00	61.6	61.6	61.6	97	60.7	0	0	---	0.00	29.951 
04:05	61.5	61.5	61.5	97	60.6	0	0	---	0.00	29.950 
04:10	61.5	61.5	61.5	97	60.6	0	0	---	0.00	29.949 
04:15	61.3	61.3	61.3	97	60.4	0	0	---	0.00	29.952 
04:20	61.3	61.3	61.3	97	60.4	0	0	---	0.00	29.952 
04:25	61.2	61.2	61.2	97	60.3	0	0	---	0.00	29.952 
04:30	61.2	61.2	61.2	97	60.3	0	0	---	0.00	29.954 
04:35	61.0	61.0	61.0	97	60.1	0	0	---	0.00	29.955 
04:40	61.0	61.0	61.0	97	60.1	0	0	---	0.00	29.955 
04:45	61.0	61.0	61.0	97	60.1	0	0	---	0.00	29.954 
04:50	61.0	61.0	61.0	97	60.1	0	0	---	0.00	29.954 
04:55	61.0	61.0	61.0	97	60.1	0	0	---	0.00	29.956 
05:00	61.0	61.0	61.0	97	60.1	0	0	---	0.00	29.957 
05:05	61.0	61.0	61.0	97	60.1	0	0	---	0.00	29.959 
05:10	61.0	61.0	61.0	97	60.1	0	0	---	0.00	29.959 
05:15	61.0	61.0	61.0	97	60.1	0	0	---	0.00	29.959 
05:20	61.0	61.0	61.0	97	60.1	0	0	---	0.00	29.959 
05:25	60.9	60.9	60.9	97	60.0	0	0	---	0.00	29.960 
05:30	60.7	60.7	60.7	97	59.8	0	0	---	0.00	29.961 
05:35	60.7	60.7	60.7	97	59.8	0	0	---	0.00	29.963 
05:40	60.5	60.5	60.5	97	59.6	0	0	---	0.00	29.963 
05:45	60.5	60.5	60.5	97	59.6	0	0	---	0.00	29.964 
05:50	60.5	60.5	60.5	97	59.6	0	0	---	0.00	29.966 
05:55	60.5	60.5	60.5	97	59.6	0	0	---	0.00	29.965 
06:00	60.4	60.4	60.4	97	59.5	0	0	---	0.00	29.968 
06:05	60.2	60.2	60.2	97	59.3	0	0	---	0.00	29.974 
06:10	60.2	60.2	60.2	97	59.3	0	0	---	0.00	29.977 
06:15	60.2	60.2	60.2	97	59.3	0	0	---	0.00	29.978 
06:20	60.2	60.2	60.2	97	59.3	0	0	---	0.00	29.979 
06:25	60.2	60.2	60.2	97	59.3	0	0	---	0.00	29.980 
06:30	60.2	60.2	60.2	97	59.3	0	0	---	0.00	29.981 
06:35	60.1	60.1	60.1	97	59.2	0	0	---	0.00	29.983 
06:40	60.2	60.2	60.2	97	59.3	0	0	---	0.00	29.985 
06:45	60.4	60.4	60.4	98	59.8	0	0	---	0.00	29.986 
06:50	60.5	60.5	60.5	98	59.9	0	0	---	0.00	29.986 
06:55	60.9	60.9	60.9	98	60.3	0	0	---	0.00	29.986 
07:00	61.2	61.2	61.2	98	60.6	0	0	---	0.00	29.988 
07:05	61.6	61.6	61.6	98	61.0	0	0	---	0.00	29.992 
07:10	62.0	62.0	62.0	98	61.4	0	0	---	0.00	29.993 
07:15	62.6	62.6	62.6	98	62.0	0	0	---	0.00	29.995 
07:20	63.1	63.1	63.1	98	62.5	0	0	---	0.00	29.995 
07:25	63.5	63.5	63.5	98	62.9	0	0	---	0.00	29.994 
07:30	64.2	64.2	64.2	98	63.6	0	1	315	0.00	29.993 
07:35	64.5	64.5	64.5	98	63.9	0	0	---	0.00	29.994 
07:40	64.7	64.7	64.7	98	64.1	0	0	---	0.00	29.996 
07:45	65.0	65.0	65.0	98	64.4	0	0	---	0.00	29.996 
07:50	65.5	65.5	65.5	97	64.6	0	1	315	0.00	29.998 
07:55	65.6	65.6	65.6	97	64.7	0	2	0	0.00	29.996 
08:00	66.0	66.0	66.0	94	64.2	0	2	0	0.00	29.997 
08:05	66.4	66.4	66.4	90	63.4	0	1	0	0.00	29.999 
08:10	67.1	67.1	67.1	88	63.4	0	3	0	0.00	30.001 
08:15	67.8	67.8	67.8	84	62.8	1	2	22	0.00	30.001 
08:20	68.6	68.6	68.6	82	62.9	0	1	22	0.00	30.002 
08:25	69.3	69.3	69.3	81	63.2	0	1	22	0.00	30.005 
08:30	69.8	69.8	69.8	79	63.0	0	1	22	0.00	30.007 
08:35	70.3	70.3	70.3	78	63.1	0	2	22	0.00	30.007 
08:40	70.8	70.8	70.8	77	63.2	0	1	22	0.00	30.008 
08:45	71.3	71.3	71.3	76	63.3	0	2	22	0.00	30.007 
08:50	71.8	71.8	71.8	76	63.8	0	3	22	0.00	30.007 
08:55	72.1	72.1	72.1	75	63.7	1	2	22	0.00	30.007 
09:00	72.7	72.7	72.7	73	63.5	1	3	22	0.00	30.008 
09:05	73.7	73.7	73.7	71	63.7	0	2	22	0.00	30.011 
09:10	74.7	74.7	74.7	68	63.4	0	1	22	0.00	30.010 
09:15	76.0	76.0	77.9	65	63.4	0	2	22	0.00	30.011 
09:20	76.8	76.8	78.6	66	64.6	0	2	22	0.00	30.009 
09:25	77.7	77.7	79.5	63	64.1	0	1	22	0.00	30.008 
09:30	78.5	78.5	80.2	60	63.4	0	1	22	0.00	30.008 
09:35	79.0	79.0	80.6	59	63.4	0	2	22	0.00	30.009 
09:40	79.6	79.6	81.3	60	64.5	0	2	22	0.00	30.009 
09:45	79.8	79.8	81.5	59	64.2	1	3	22	0.00	30.007 
09:50	80.1	80.1	81.7	58	64.0	1	2	22	0.00	30.007 
09:55	80.7	80.7	82.4	58	64.5	0	2	22	0.00	30.006 
10:00	81.1	81.1	83.0	59	65.4	1	2	22	0.00	30.005 
10:05	81.4	81.4	83.1	57	64.7	1	2	22	0.00	30.006 
10:10	81.6	81.6	83.2	56	64.4	0	2	22	0.00	30.006 
10:15	82.4	82.4	84.1	55	64.6	0	1	22	0.00	30.004 
10:20	83.0	83.0	84.7	54	64.6	0	2	22	0.00	30.005 
10:25	83.0	83.0	84.5	53	64.1	2	3	22	0.00	30.004 
10:30	83.0	83.0	84.7	54	64.6	1	3	45	0.00	30.002 
10:35	83.4	83.4	85.2	54	65.0	0	1	45	0.00	30.002 
10:40	83.8	83.8	85.7	54	65.3	1	3	68	0.00	30.000 
10:45	83.8	83.8	85.5	53	64.8	1	2	68	0.00	30.000 
10:50	84.1	84.1	86.4	55	66.2	0	1	68	0.00	29.999 
10:55	84.5	84.5	86.5	53	65.5	0	2	68	0.00	29.998 
11:00	85.3	85.3	88.0	54	66.7	0	2	68	0.00	29.998 
11:05	85.7	85.7	87.2	49	64.3	0	3	68	0.00	29.997 
11:10	86.1	86.1	87.5	48	64.1	0	2	68	0.00	29.997 
11:15	86.1	86.1	88.9	53	66.9	1	4	68	0.00	29.996 
11:20	86.3	86.3	88.0	49	64.9	1	2	68	0.00	29.995 
11:25	86.5	86.5	88.6	50	65.6	0	3	68	0.00	29.992 
11:30	86.7	86.7	88.1	47	64.0	1	3	68	0.00	29.991 
11:35	87.0	87.0	88.2	46	63.7	1	3	90	0.00	29.990 
11:40	87.2	87.2	89.4	49	65.7	1	3	90	0.00	29.988 
11:45	87.2	87.2	88.8	47	64.5	1	3	90	0.00	29.987 
11:50	87.0	87.0	89.1	49	65.5	1	5	90	0.00	29.986 
11:55	87.2	87.2	88.5	46	63.9	1	3	90	0.00	29.986 
12:00	87.8	87.8	88.5	43	62.5	1	3	90	0.00	29.986 
12:05	88.0	88.0	90.0	47	65.2	0	1	90	0.00	29.984 
12:10	88.4	88.4	89.0	42	62.3	1	3	90	0.00	29.984 
12:15	88.4	88.4	89.6	44	63.7	1	4	90	0.00	29.983 
12:20	88.2	88.2	89.0	43	62.8	1	3	90	0.00	29.982 
12:25	88.0	88.0	87.6	39	59.9	2	4	90	0.00	29.982 
12:30	88.2	88.2	88.7	42	62.2	1	6	90	0.00	29.980 
12:35	88.2	88.2	89.7	45	64.1	1	4	135	0.00	29.980 
12:40	88.4	88.4	88.4	40	61.0	2	4	112	0.00	29.981 
12:45	88.6	88.6	88.7	40	61.1	1	3	90	0.00	29.979 
12:50	89.0	89.0	89.3	40	61.5	1	3	90	0.00	29.980 
12:55	89.3	89.3	90.0	41	62.5	2	5	90	0.00	29.979 
13:00	89.0	89.0	88.7	38	60.1	2	4	90	0.00	29.978 
13:05	89.3	89.3	89.7	40	61.8	1	3	90	0.00	29.976 
13:10	89.5	89.5	89.6	39	61.2	1	3	90	0.00	29.973 
13:15	89.7	89.7	89.6	38	60.7	1	4	112	0.00	29.973 
13:20	90.1	90.1	90.2	38	61.0	1	2	22	0.00	29.970 
13:25	90.3	90.3	90.8	39	61.9	2	6	90	0.00	29.970 
13:30	89.7	89.7	89.6	38	60.7	2	5	90	0.00	29.969 
13:35	89.9	89.9	90.2	39	61.6	1	4	90	0.00	29.968 
13:40	89.9	89.9	89.6	37	60.1	2	4	68	0.00	29.968 
13:45	89.9	89.9	90.2	39	61.6	2	3	90	0.00	29.967 
13:50	89.9	89.9	89.9	38	60.8	2	4	90	0.00	29.967 
13:55	90.1	90.1	89.3	35	58.7	2	4	90	0.00	29.968 
14:00	90.1	90.1	89.9	37	60.3	2	4	90	0.00	29.967 
14:05	90.1	90.1	89.6	36	59.5	2	5	90	0.00	29.965 
14:10	90.3	90.3	89.8	36	59.7	1	3	112	0.00	29.964 
14:15	90.5	90.5	89.8	35	59.1	2	4	90	0.00	29.963 
14:20	90.5	90.5	89.8	35	59.1	2	5	112	0.00	29.962 
14:25	90.3	90.3	89.6	35	58.9	2	5	112	0.00	29.963 
14:30	90.3	90.3	90.1	37	60.4	1	5	112	0.00	29.959 
14:35	90.5	90.5	89.3	33	57.4	1	7	90	0.00	29.959 
14:40	90.7	90.7	89.2	32	56.7	1	5	90	0.00	29.960 
14:45	90.7	90.7	89.5	33	57.6	1	3	248	0.00	29.956 
14:50	91.0	91.0	90.5	35	59.5	1	3	90	0.00	29.954 
14:55	91.0	91.0	90.5	35	59.5	1	4	270	0.00	29.953 
15:00	91.0	91.0	90.5	35	59.5	1	4	90	0.00	29.951 
15:05	91.0	91.0	90.2	34	58.7	2	5	90	0.00	29.950 
15:10	90.5	90.5	89.8	35	59.1	2	5	112	0.00	29.951 
15:15	90.5	90.5	90.1	36	59.9	1	3	68	0.00	29.948 
15:20	90.7	90.7	89.8	34	58.4	1	5	315	0.00	29.947 
15:25	90.7	90.7	90.1	35	59.2	1	3	270	0.00	29.944 
15:30	90.7	90.7	91.4	39	62.3	1	3	270	0.00	29.941 
15:35	91.2	91.2	91.1	36	60.5	1	3	202	0.00	29.939 
15:40	91.0	91.0	89.9	33	57.9	2	5	90	0.00	29.938 
15:45	90.7	90.7	89.5	33	57.6	1	3	90	0.00	29.938 
15:50	90.7	90.7	90.4	36	60.0	0	2	315	0.00	29.936 
15:55	90.7	90.7	89.8	34	58.4	1	5	0	0.00	29.938 
16:00	90.3	90.3	89.0	33	57.2	2	4	112	0.00	29.937 
16:05	90.3	90.3	89.3	34	58.1	1	3	90	0.00	29.938 
16:10	90.3	90.3	89.3	34	58.1	1	3	90	0.00	29.938 
16:15	90.3	90.3	89.8	36	59.7	0	2	68	0.00	29.938 
16:20	90.1	90.1	89.0	34	57.9	1	3	68	0.00	29.939 
16:25	89.9	89.9	89.0	35	58.5	0	2	68	0.00	29.939 
16:30	89.9	89.9	88.5	33	56.9	1	3	68	0.00	29.939 
16:35	89.7	89.7	88.3	33	56.7	1	3	68	0.00	29.938 
16:40	89.7	89.7	88.5	34	57.6	1	4	68	0.00	29.938 
16:45	89.5	89.5	89.3	38	60.5	0	2	90	0.00	29.938 
16:50	89.3	89.3	88.3	35	58.0	0	2	158	0.00	29.938 
16:55	89.3	89.3	88.8	37	59.6	0	1	158	0.00	29.937 
17:00	89.0	89.0	87.9	35	57.7	1	3	135	0.00	29.937 
17:05	88.8	88.8	88.4	38	59.9	0	2	90	0.00	29.938 
17:10	88.8	88.8	88.4	38	59.9	0	1	90	0.00	29.935 
17:15	88.8	88.8	88.1	37	59.1	0	3	90	0.00	29.934 
17:20	88.6	88.6	88.7	40	61.1	0	2	90	0.00	29.932 
17:25	88.4	88.4	88.7	41	61.7	0	1	90	0.00	29.931 
17:30	88.2	88.2	87.9	39	60.1	0	2	90	0.00	29.933 
17:35	88.0	88.0	88.2	41	61.3	0	2	90	0.00	29.930 
17:40	87.8	87.8	88.2	42	61.8	0	1	90	0.00	29.930 
17:45	87.6	87.6	88.2	43	62.3	0	2	90	0.00	29.931 
17:50	87.2	87.2	87.6	43	61.9	0	1	90	0.00	29.932 
17:55	87.0	87.0	87.6	44	62.4	0	1	90	0.00	29.933 
18:00	86.5	86.5	87.5	46	63.2	0	1	90	0.00	29.934 
18:05	86.3	86.3	87.2	46	63.0	0	1	90	0.00	29.934 
18:10	85.9	85.9	86.9	47	63.3	0	0	---	0.00	29.931 
18:15	85.7	85.7	86.7	47	63.1	0	1	90	0.00	29.933 
18:20	85.5	85.5	86.9	49	64.1	0	0	---	0.00	29.932 
18:25	85.3	85.3	86.9	50	64.5	0	0	---	0.00	29.929 
18:30	84.9	84.9	86.3	50	64.2	0	0	---	0.00	29.931 
18:35	84.5	84.5	86.3	52	64.9	0	0	---	0.00	29.930 
18:40	84.1	84.1	85.9	53	65.1	0	0	---	0.00	29.930 
18:45	83.6	83.6	85.2	53	64.6	0	0	---	0.00	29.928 
18:50	83.2	83.2	85.1	55	65.3	0	0	---	0.00	29.930 
18:55	82.6	82.6	84.5	56	65.3	0	0	---	0.00	29.932 
19:00	82.0	82.0	83.9	57	65.2	0	0	---	0.00	29.934 
19:05	81.4	81.4	83.3	58	65.2	0	0	---	0.00	29.932 
19:10	80.9	80.9	82.8	59	65.2	0	0	---	0.00	29.935 
19:15	80.3	80.3	82.1	59	64.6	0	0	---	0.00	29.937 
19:20	79.8	79.8	81.6	60	64.7	0	0	---	0.00	29.937 
19:25	79.2	79.2	81.1	62	65.0	0	0	---	0.00	29.938 
19:30	78.8	78.8	80.6	62	64.7	0	0	---	0.00	29.938 
19:35	78.5	78.5	80.3	63	64.8	0	0	---	0.00	29.938 
19:40	77.9	77.9	79.7	64	64.7	0	0	---	0.00	29.938 
19:45	77.7	77.7	79.5	65	65.0	0	0	---	0.00	29.939 
19:50	77.4	77.4	79.2	66	65.1	0	0	---	0.00	29.940 
19:55	77.2	77.2	79.0	66	64.9	0	0	---	0.00	29.942 
20:00	76.8	76.8	78.6	67	65.0	0	0	---	0.00	29.942 
20:05	76.5	76.5	78.3	67	64.7	0	0	---	0.00	29.936 
20:10	76.3	76.3	78.0	68	64.9	0	0	---	0.00	29.938 
20:15	76.0	76.0	77.7	68	64.7	0	0	---	0.00	29.939 
20:20	75.6	75.6	77.4	68	64.3	0	0	---	0.00	29.944 
20:25	75.4	75.4	77.1	69	64.5	0	0	---	0.00	29.946 
20:30	75.1	75.1	76.9	69	64.2	0	0	---	0.00	29.948 
20:35	74.9	74.9	74.9	70	64.4	0	0	---	0.00	29.950 
20:40	74.7	74.7	74.7	70	64.2	0	0	---	0.00	29.952 
20:45	74.6	74.6	74.6	70	64.2	0	0	---	0.00	29.953 
20:50	74.4	74.4	74.4	71	64.4	0	0	---	0.00	29.955 
20:55	74.2	74.2	74.2	71	64.2	0	0	---	0.00	29.956 
21:00	74.2	74.2	74.2	71	64.2	0	0	---	0.00	29.956 
21:05	74.0	74.0	74.0	72	64.4	0	0	---	0.00	29.951 
21:10	73.7	73.7	73.7	72	64.1	0	0	---	0.00	29.952 
21:15	73.7	73.7	73.7	72	64.1	0	0	---	0.00	29.951 
21:20	73.5	73.5	73.5	71	63.5	0	1	90	0.00	29.951 
21:25	73.5	73.5	73.5	70	63.1	0	0	---	0.00	29.952 
21:30	73.5	73.5	73.5	70	63.1	0	0	---	0.00	29.952 
21:35	73.7	73.7	73.7	69	62.9	0	0	---	0.00	29.953 
21:40	73.7	73.7	73.7	69	62.9	0	0	---	0.00	29.953 
21:45	73.5	73.5	73.5	70	63.1	0	0	---	0.00	29.953 
21:50	73.3	73.3	73.3	70	62.9	0	0	---	0.00	29.953 
21:55	73.2	73.2	73.2	70	62.8	0	0	---	0.00	29.952 
22:00	73.0	73.0	73.0	71	63.0	0	0	---	0.00	29.952 
22:05	72.7	72.7	72.7	72	63.1	0	0	---	0.00	29.949 
22:10	72.5	72.5	72.5	72	62.9	0	0	---	0.00	29.948 
22:15	72.1	72.1	72.1	73	63.0	0	0	---	0.00	29.949 
22:20	71.8	71.8	71.8	73	62.7	0	0	---	0.00	29.949 
22:25	71.6	71.6	71.6	74	62.9	0	0	---	0.00	29.949 
22:30	71.6	71.6	71.6	74	62.9	0	0	---	0.00	29.948 
22:35	71.5	71.5	71.5	74	62.8	0	0	---	0.00	29.949 
22:40	71.1	71.1	71.1	75	62.8	0	0	---	0.00	29.949 
22:45	70.9	70.9	70.9	75	62.6	0	0	---	0.00	29.949 
22:50	70.8	70.8	70.8	75	62.5	0	0	---	0.00	29.949 
22:55	70.6	70.6	70.6	76	62.7	0	0	---	0.00	29.949 
23:00	70.4	70.4	70.4	74	61.7	0	0	---	0.00	29.951 
23:05	70.6	70.6	70.6	74	61.9	0	0	---	0.00	29.948 
23:10	70.8	70.8	70.8	73	61.7	0	0	---	0.00	29.948 
23:15	71.1	71.1	71.1	71	61.2	0	1	90	0.00	29.948 
23:20	71.6	71.6	71.6	70	61.3	0	0	---	0.00	29.946 
23:25	71.8	71.8	71.8	69	61.1	0	0	---	0.00	29.945 
23:30	71.8	71.8	71.8	70	61.5	0	0	---	0.00	29.945 
23:35	71.6	71.6	71.6	69	60.9	0	0	---	0.00	29.945 
23:40	71.5	71.5	71.5	70	61.2	0	0	---	0.00	29.944 
23:45	71.3	71.3	71.3	70	61.0	0	0	---	0.00	29.944 
23:50	71.3	71.3	71.3	70	61.0	0	0	---	0.00	29.944 
23:55	71.1	71.1	71.1	71	61.2	0	0	---	0.00	29.941 

CoCoRaHS
IN-AL-39
A2 Web Hosting
Creative Commons License
GoDaddy
Look for:

loaded 2017-10-17 09:12:48 • last modified 2010-11-18 10:43:29
Privacy PolicyDisclaimer
• wx.awcolley.com is powered by PmWiki v.2002016 •
• all content (unless otherwise noted) © 2017 A W Colley